sensor_id;sensor_type;location;lat;lon;timestamp;P1;durP1;ratioP1;P2;durP2;ratioP2
21825;SDS011;11075;47.944;11.776;2023-06-14T00:01:56;3.80;;;3.50;;
21825;SDS011;11075;47.944;11.776;2023-06-14T00:04:23;3.87;;;3.27;;
21825;SDS011;11075;47.944;11.776;2023-06-14T00:06:51;6.47;;;3.43;;
21825;SDS011;11075;47.944;11.776;2023-06-14T00:09:19;4.93;;;3.30;;
21825;SDS011;11075;47.944;11.776;2023-06-14T00:11:45;4.60;;;3.77;;
21825;SDS011;11075;47.944;11.776;2023-06-14T00:14:12;3.93;;;3.43;;
21825;SDS011;11075;47.944;11.776;2023-06-14T00:16:40;5.10;;;3.00;;
21825;SDS011;11075;47.944;11.776;2023-06-14T00:19:11;6.00;;;3.67;;
21825;SDS011;11075;47.944;11.776;2023-06-14T00:21:38;4.63;;;3.60;;
21825;SDS011;11075;47.944;11.776;2023-06-14T00:24:05;4.23;;;3.60;;
21825;SDS011;11075;47.944;11.776;2023-06-14T00:26:34;5.97;;;3.67;;
21825;SDS011;11075;47.944;11.776;2023-06-14T00:29:00;4.90;;;3.90;;
21825;SDS011;11075;47.944;11.776;2023-06-14T00:31:27;4.93;;;3.70;;
21825;SDS011;11075;47.944;11.776;2023-06-14T00:33:54;3.87;;;3.07;;
21825;SDS011;11075;47.944;11.776;2023-06-14T00:36:21;4.53;;;3.70;;
21825;SDS011;11075;47.944;11.776;2023-06-14T00:38:48;4.37;;;3.53;;
21825;SDS011;11075;47.944;11.776;2023-06-14T00:41:15;7.70;;;3.57;;
21825;SDS011;11075;47.944;11.776;2023-06-14T00:43:42;4.10;;;3.03;;
21825;SDS011;11075;47.944;11.776;2023-06-14T00:46:08;6.87;;;3.50;;
21825;SDS011;11075;47.944;11.776;2023-06-14T00:48:36;3.93;;;3.33;;
21825;SDS011;11075;47.944;11.776;2023-06-14T00:51:05;7.20;;;3.83;;
21825;SDS011;11075;47.944;11.776;2023-06-14T00:53:32;5.90;;;4.00;;
21825;SDS011;11075;47.944;11.776;2023-06-14T00:56:02;4.67;;;3.80;;
21825;SDS011;11075;47.944;11.776;2023-06-14T00:58:29;4.27;;;3.40;;
21825;SDS011;11075;47.944;11.776;2023-06-14T01:00:57;7.37;;;3.67;;
21825;SDS011;11075;47.944;11.776;2023-06-14T01:03:24;5.67;;;3.90;;
21825;SDS011;11075;47.944;11.776;2023-06-14T01:05:53;4.27;;;3.50;;
21825;SDS011;11075;47.944;11.776;2023-06-14T01:08:36;6.83;;;3.80;;
21825;SDS011;11075;47.944;11.776;2023-06-14T01:11:16;5.90;;;3.57;;
21825;SDS011;11075;47.944;11.776;2023-06-14T01:13:49;5.87;;;4.00;;
21825;SDS011;11075;47.944;11.776;2023-06-14T01:16:21;5.03;;;3.83;;
21825;SDS011;11075;47.944;11.776;2023-06-14T01:18:48;5.57;;;3.97;;
21825;SDS011;11075;47.944;11.776;2023-06-14T01:21:25;6.00;;;4.27;;
21825;SDS011;11075;47.944;11.776;2023-06-14T01:23:54;5.03;;;3.50;;
21825;SDS011;11075;47.944;11.776;2023-06-14T01:26:25;3.73;;;3.23;;
21825;SDS011;11075;47.944;11.776;2023-06-14T01:28:56;5.03;;;3.70;;
21825;SDS011;11075;47.944;11.776;2023-06-14T01:31:25;6.43;;;4.67;;
21825;SDS011;11075;47.944;11.776;2023-06-14T01:33:53;8.10;;;4.10;;
21825;SDS011;11075;47.944;11.776;2023-06-14T01:36:22;5.93;;;4.47;;
21825;SDS011;11075;47.944;11.776;2023-06-14T01:38:55;5.40;;;3.97;;
21825;SDS011;11075;47.944;11.776;2023-06-14T01:41:22;5.00;;;3.40;;
21825;SDS011;11075;47.944;11.776;2023-06-14T01:43:51;5.90;;;3.67;;
21825;SDS011;11075;47.944;11.776;2023-06-14T01:46:19;6.03;;;3.93;;
21825;SDS011;11075;47.944;11.776;2023-06-14T01:48:46;4.40;;;3.30;;
21825;SDS011;11075;47.944;11.776;2023-06-14T01:51:14;6.23;;;3.80;;
21825;SDS011;11075;47.944;11.776;2023-06-14T01:53:41;5.43;;;3.53;;
21825;SDS011;11075;47.944;11.776;2023-06-14T01:56:09;6.53;;;3.30;;
21825;SDS011;11075;47.944;11.776;2023-06-14T01:58:36;6.33;;;3.43;;
21825;SDS011;11075;47.944;11.776;2023-06-14T02:01:03;4.80;;;3.60;;
21825;SDS011;11075;47.944;11.776;2023-06-14T02:03:30;7.50;;;3.80;;
21825;SDS011;11075;47.944;11.776;2023-06-14T02:05:57;5.03;;;3.60;;
21825;SDS011;11075;47.944;11.776;2023-06-14T02:08:24;5.47;;;3.70;;
21825;SDS011;11075;47.944;11.776;2023-06-14T02:10:51;4.63;;;3.50;;
21825;SDS011;11075;47.944;11.776;2023-06-14T02:13:20;4.80;;;3.80;;
21825;SDS011;11075;47.944;11.776;2023-06-14T02:15:47;5.13;;;4.00;;
21825;SDS011;11075;47.944;11.776;2023-06-14T02:18:17;5.77;;;4.47;;
21825;SDS011;11075;47.944;11.776;2023-06-14T02:20:45;4.80;;;4.10;;
21825;SDS011;11075;47.944;11.776;2023-06-14T02:23:12;6.17;;;4.03;;
21825;SDS011;11075;47.944;11.776;2023-06-14T02:25:38;5.97;;;3.90;;
21825;SDS011;11075;47.944;11.776;2023-06-14T02:28:06;4.80;;;3.67;;
21825;SDS011;11075;47.944;11.776;2023-06-14T02:30:33;7.67;;;3.90;;
21825;SDS011;11075;47.944;11.776;2023-06-14T02:33:00;4.50;;;3.90;;
21825;SDS011;11075;47.944;11.776;2023-06-14T02:35:27;5.70;;;4.13;;
21825;SDS011;11075;47.944;11.776;2023-06-14T02:37:55;4.93;;;4.27;;
21825;SDS011;11075;47.944;11.776;2023-06-14T02:40:22;6.00;;;3.97;;
21825;SDS011;11075;47.944;11.776;2023-06-14T02:42:49;5.33;;;3.83;;
21825;SDS011;11075;47.944;11.776;2023-06-14T02:45:16;5.03;;;4.20;;
21825;SDS011;11075;47.944;11.776;2023-06-14T02:47:45;6.13;;;3.80;;
21825;SDS011;11075;47.944;11.776;2023-06-14T02:50:12;5.47;;;3.90;;
21825;SDS011;11075;47.944;11.776;2023-06-14T02:52:40;6.13;;;4.27;;
21825;SDS011;11075;47.944;11.776;2023-06-14T02:55:08;6.53;;;4.40;;
21825;SDS011;11075;47.944;11.776;2023-06-14T02:57:36;5.50;;;4.07;;
21825;SDS011;11075;47.944;11.776;2023-06-14T03:00:04;5.33;;;4.00;;
21825;SDS011;11075;47.944;11.776;2023-06-14T03:02:34;6.33;;;4.17;;
21825;SDS011;11075;47.944;11.776;2023-06-14T03:05:01;8.00;;;3.93;;
21825;SDS011;11075;47.944;11.776;2023-06-14T03:07:30;5.27;;;4.30;;
21825;SDS011;11075;47.944;11.776;2023-06-14T03:09:58;6.57;;;4.27;;
21825;SDS011;11075;47.944;11.776;2023-06-14T03:12:25;6.13;;;4.07;;
21825;SDS011;11075;47.944;11.776;2023-06-14T03:14:53;5.27;;;3.97;;
21825;SDS011;11075;47.944;11.776;2023-06-14T03:17:24;5.10;;;4.13;;
21825;SDS011;11075;47.944;11.776;2023-06-14T03:19:56;9.17;;;4.37;;
21825;SDS011;11075;47.944;11.776;2023-06-14T03:22:24;4.70;;;4.07;;
21825;SDS011;11075;47.944;11.776;2023-06-14T03:24:52;5.33;;;4.20;;
21825;SDS011;11075;47.944;11.776;2023-06-14T03:27:21;6.43;;;4.07;;
21825;SDS011;11075;47.944;11.776;2023-06-14T03:29:48;5.60;;;4.37;;
21825;SDS011;11075;47.944;11.776;2023-06-14T03:32:15;6.70;;;4.20;;
21825;SDS011;11075;47.944;11.776;2023-06-14T03:34:43;6.60;;;3.93;;
21825;SDS011;11075;47.944;11.776;2023-06-14T03:37:18;6.83;;;4.10;;
21825;SDS011;11075;47.944;11.776;2023-06-14T03:39:46;4.90;;;3.90;;
21825;SDS011;11075;47.944;11.776;2023-06-14T03:42:20;9.23;;;3.80;;
21825;SDS011;11075;47.944;11.776;2023-06-14T03:44:48;5.93;;;3.90;;
21825;SDS011;11075;47.944;11.776;2023-06-14T03:47:17;6.73;;;4.23;;
21825;SDS011;11075;47.944;11.776;2023-06-14T03:49:43;5.57;;;4.00;;
21825;SDS011;11075;47.944;11.776;2023-06-14T03:52:10;4.77;;;3.70;;
21825;SDS011;11075;47.944;11.776;2023-06-14T03:54:39;7.23;;;4.10;;
21825;SDS011;11075;47.944;11.776;2023-06-14T03:57:27;4.50;;;3.57;;
21825;SDS011;11075;47.944;11.776;2023-06-14T03:59:56;5.47;;;3.70;;
21825;SDS011;11075;47.944;11.776;2023-06-14T04:02:25;4.97;;;3.90;;
21825;SDS011;11075;47.944;11.776;2023-06-14T04:04:55;6.43;;;4.37;;
21825;SDS011;11075;47.944;11.776;2023-06-14T04:07:22;4.70;;;3.80;;
21825;SDS011;11075;47.944;11.776;2023-06-14T04:09:49;4.90;;;3.67;;
21825;SDS011;11075;47.944;11.776;2023-06-14T04:12:17;6.50;;;4.30;;
21825;SDS011;11075;47.944;11.776;2023-06-14T04:14:44;5.33;;;3.80;;
21825;SDS011;11075;47.944;11.776;2023-06-14T04:17:11;12.00;;;5.03;;
21825;SDS011;11075;47.944;11.776;2023-06-14T04:19:41;7.83;;;5.40;;
21825;SDS011;11075;47.944;11.776;2023-06-14T04:22:08;5.97;;;4.20;;
21825;SDS011;11075;47.944;11.776;2023-06-14T04:24:38;6.20;;;4.20;;
21825;SDS011;11075;47.944;11.776;2023-06-14T04:27:05;7.53;;;3.87;;
21825;SDS011;11075;47.944;11.776;2023-06-14T04:29:35;5.57;;;4.00;;
21825;SDS011;11075;47.944;11.776;2023-06-14T04:32:06;4.77;;;3.70;;
21825;SDS011;11075;47.944;11.776;2023-06-14T04:34:37;4.77;;;3.63;;
21825;SDS011;11075;47.944;11.776;2023-06-14T04:37:07;5.60;;;4.10;;
21825;SDS011;11075;47.944;11.776;2023-06-14T04:39:36;4.60;;;3.57;;
21825;SDS011;11075;47.944;11.776;2023-06-14T04:42:04;5.47;;;3.10;;
21825;SDS011;11075;47.944;11.776;2023-06-14T04:44:32;5.47;;;4.07;;
21825;SDS011;11075;47.944;11.776;2023-06-14T04:47:01;4.10;;;3.00;;
21825;SDS011;11075;47.944;11.776;2023-06-14T04:49:28;5.00;;;3.70;;
21825;SDS011;11075;47.944;11.776;2023-06-14T04:51:57;4.53;;;3.83;;
21825;SDS011;11075;47.944;11.776;2023-06-14T04:54:30;3.23;;;2.93;;
21825;SDS011;11075;47.944;11.776;2023-06-14T04:57:01;5.67;;;3.73;;
21825;SDS011;11075;47.944;11.776;2023-06-14T04:59:29;5.53;;;3.30;;
21825;SDS011;11075;47.944;11.776;2023-06-14T05:01:59;4.93;;;3.70;;
21825;SDS011;11075;47.944;11.776;2023-06-14T05:04:27;5.40;;;3.23;;
21825;SDS011;11075;47.944;11.776;2023-06-14T05:06:55;4.70;;;3.53;;
21825;SDS011;11075;47.944;11.776;2023-06-14T05:09:24;6.07;;;3.83;;
21825;SDS011;11075;47.944;11.776;2023-06-14T05:11:50;4.00;;;3.60;;
21825;SDS011;11075;47.944;11.776;2023-06-14T05:14:17;5.37;;;3.07;;
21825;SDS011;11075;47.944;11.776;2023-06-14T05:16:45;4.30;;;3.30;;
21825;SDS011;11075;47.944;11.776;2023-06-14T05:19:12;4.77;;;3.53;;
21825;SDS011;11075;47.944;11.776;2023-06-14T05:21:39;5.63;;;3.50;;
21825;SDS011;11075;47.944;11.776;2023-06-14T05:24:09;4.60;;;3.60;;
21825;SDS011;11075;47.944;11.776;2023-06-14T05:26:36;3.60;;;3.30;;
21825;SDS011;11075;47.944;11.776;2023-06-14T05:29:03;4.75;;;3.42;;
21825;SDS011;11075;47.944;11.776;2023-06-14T05:31:30;5.00;;;3.90;;
21825;SDS011;11075;47.944;11.776;2023-06-14T05:33:57;6.30;;;3.92;;
21825;SDS011;11075;47.944;11.776;2023-06-14T05:36:24;5.53;;;3.33;;
21825;SDS011;11075;47.944;11.776;2023-06-14T05:38:52;5.25;;;3.88;;
21825;SDS011;11075;47.944;11.776;2023-06-14T05:41:27;4.32;;;3.40;;
21825;SDS011;11075;47.944;11.776;2023-06-14T05:43:55;7.70;;;3.80;;
21825;SDS011;11075;47.944;11.776;2023-06-14T05:46:23;5.10;;;3.50;;
21825;SDS011;11075;47.944;11.776;2023-06-14T05:48:54;7.63;;;3.80;;
21825;SDS011;11075;47.944;11.776;2023-06-14T05:51:22;7.93;;;3.53;;
21825;SDS011;11075;47.944;11.776;2023-06-14T05:53:52;11.98;;;3.80;;
21825;SDS011;11075;47.944;11.776;2023-06-14T05:56:19;8.38;;;4.03;;
21825;SDS011;11075;47.944;11.776;2023-06-14T05:58:46;12.15;;;4.20;;
21825;SDS011;11075;47.944;11.776;2023-06-14T06:01:14;5.95;;;3.78;;
21825;SDS011;11075;47.944;11.776;2023-06-14T06:03:41;5.63;;;3.50;;
21825;SDS011;11075;47.944;11.776;2023-06-14T06:06:13;5.57;;;3.75;;
21825;SDS011;11075;47.944;11.776;2023-06-14T06:08:40;8.60;;;3.85;;
21825;SDS011;11075;47.944;11.776;2023-06-14T06:11:07;4.30;;;3.70;;
21825;SDS011;11075;47.944;11.776;2023-06-14T06:13:34;6.00;;;3.97;;
21825;SDS011;11075;47.944;11.776;2023-06-14T06:16:02;4.85;;;3.60;;
21825;SDS011;11075;47.944;11.776;2023-06-14T06:18:30;7.03;;;3.63;;
21825;SDS011;11075;47.944;11.776;2023-06-14T06:20:57;8.57;;;3.58;;
21825;SDS011;11075;47.944;11.776;2023-06-14T06:23:24;5.10;;;3.63;;
21825;SDS011;11075;47.944;11.776;2023-06-14T06:25:51;6.53;;;3.65;;
21825;SDS011;11075;47.944;11.776;2023-06-14T06:28:18;7.20;;;4.05;;
21825;SDS011;11075;47.944;11.776;2023-06-14T06:30:45;4.65;;;3.60;;
21825;SDS011;11075;47.944;11.776;2023-06-14T06:33:12;5.35;;;3.65;;
21825;SDS011;11075;47.944;11.776;2023-06-14T06:35:43;5.78;;;3.85;;
21825;SDS011;11075;47.944;11.776;2023-06-14T06:38:10;6.35;;;3.28;;
21825;SDS011;11075;47.944;11.776;2023-06-14T06:40:37;4.85;;;2.97;;
21825;SDS011;11075;47.944;11.776;2023-06-14T06:43:04;5.15;;;3.35;;
21825;SDS011;11075;47.944;11.776;2023-06-14T06:45:39;5.78;;;3.78;;
21825;SDS011;11075;47.944;11.776;2023-06-14T06:48:06;3.80;;;3.22;;
21825;SDS011;11075;47.944;11.776;2023-06-14T06:50:33;5.97;;;3.50;;
21825;SDS011;11075;47.944;11.776;2023-06-14T06:53:00;7.85;;;3.53;;
21825;SDS011;11075;47.944;11.776;2023-06-14T06:55:27;6.55;;;3.92;;
21825;SDS011;11075;47.944;11.776;2023-06-14T06:57:54;4.18;;;3.42;;
21825;SDS011;11075;47.944;11.776;2023-06-14T07:00:21;5.05;;;3.42;;
21825;SDS011;11075;47.944;11.776;2023-06-14T07:02:48;3.83;;;3.38;;
21825;SDS011;11075;47.944;11.776;2023-06-14T07:05:15;6.13;;;3.90;;
21825;SDS011;11075;47.944;11.776;2023-06-14T07:07:42;5.57;;;3.88;;
21825;SDS011;11075;47.944;11.776;2023-06-14T07:10:09;7.07;;;3.38;;
21825;SDS011;11075;47.944;11.776;2023-06-14T07:12:36;6.72;;;3.55;;
21825;SDS011;11075;47.944;11.776;2023-06-14T07:15:08;3.83;;;3.17;;
21825;SDS011;11075;47.944;11.776;2023-06-14T07:17:36;5.25;;;3.38;;
21825;SDS011;11075;47.944;11.776;2023-06-14T07:20:03;4.68;;;3.42;;
21825;SDS011;11075;47.944;11.776;2023-06-14T07:22:40;5.43;;;3.08;;
21825;SDS011;11075;47.944;11.776;2023-06-14T07:25:09;3.80;;;3.15;;
21825;SDS011;11075;47.944;11.776;2023-06-14T07:27:40;6.00;;;3.08;;
21825;SDS011;11075;47.944;11.776;2023-06-14T07:30:08;7.70;;;2.97;;
21825;SDS011;11075;47.944;11.776;2023-06-14T07:32:35;4.03;;;3.25;;
21825;SDS011;11075;47.944;11.776;2023-06-14T07:35:02;4.18;;;3.03;;
21825;SDS011;11075;47.944;11.776;2023-06-14T07:37:30;4.57;;;2.97;;
21825;SDS011;11075;47.944;11.776;2023-06-14T07:39:57;5.10;;;3.25;;
21825;SDS011;11075;47.944;11.776;2023-06-14T07:42:24;3.53;;;3.10;;
21825;SDS011;11075;47.944;11.776;2023-06-14T07:44:51;5.00;;;3.30;;
21825;SDS011;11075;47.944;11.776;2023-06-14T07:47:19;3.72;;;3.22;;
21825;SDS011;11075;47.944;11.776;2023-06-14T07:49:46;5.88;;;3.22;;
21825;SDS011;11075;47.944;11.776;2023-06-14T07:52:13;5.72;;;3.30;;
21825;SDS011;11075;47.944;11.776;2023-06-14T07:54:40;5.32;;;3.08;;
21825;SDS011;11075;47.944;11.776;2023-06-14T07:57:07;4.65;;;3.30;;
21825;SDS011;11075;47.944;11.776;2023-06-14T07:59:35;10.00;;;3.40;;
21825;SDS011;11075;47.944;11.776;2023-06-14T08:02:02;9.65;;;3.42;;
21825;SDS011;11075;47.944;11.776;2023-06-14T08:04:29;5.53;;;3.15;;
21825;SDS011;11075;47.944;11.776;2023-06-14T08:06:57;7.80;;;3.03;;
21825;SDS011;11075;47.944;11.776;2023-06-14T08:09:25;5.22;;;2.83;;
21825;SDS011;11075;47.944;11.776;2023-06-14T08:11:52;5.45;;;3.05;;
21825;SDS011;11075;47.944;11.776;2023-06-14T08:14:18;5.40;;;3.10;;
21825;SDS011;11075;47.944;11.776;2023-06-14T08:16:45;5.28;;;2.92;;
21825;SDS011;11075;47.944;11.776;2023-06-14T08:19:12;5.22;;;3.42;;
21825;SDS011;11075;47.944;11.776;2023-06-14T08:21:39;5.65;;;2.80;;
21825;SDS011;11075;47.944;11.776;2023-06-14T08:24:06;5.55;;;3.10;;
21825;SDS011;11075;47.944;11.776;2023-06-14T08:26:33;3.35;;;2.55;;
21825;SDS011;11075;47.944;11.776;2023-06-14T08:29:00;4.00;;;2.90;;
21825;SDS011;11075;47.944;11.776;2023-06-14T08:31:27;8.40;;;2.47;;
21825;SDS011;11075;47.944;11.776;2023-06-14T08:33:54;4.45;;;2.78;;
21825;SDS011;11075;47.944;11.776;2023-06-14T08:36:21;3.65;;;2.70;;
21825;SDS011;11075;47.944;11.776;2023-06-14T08:38:49;5.88;;;2.90;;
21825;SDS011;11075;47.944;11.776;2023-06-14T08:41:23;3.78;;;2.53;;
21825;SDS011;11075;47.944;11.776;2023-06-14T08:43:51;5.82;;;3.17;;
21825;SDS011;11075;47.944;11.776;2023-06-14T08:46:18;3.45;;;2.72;;
21825;SDS011;11075;47.944;11.776;2023-06-14T08:48:49;6.47;;;2.80;;
21825;SDS011;11075;47.944;11.776;2023-06-14T08:51:20;5.35;;;2.65;;
21825;SDS011;11075;47.944;11.776;2023-06-14T08:53:51;3.05;;;2.75;;
21825;SDS011;11075;47.944;11.776;2023-06-14T08:56:25;4.60;;;2.60;;
21825;SDS011;11075;47.944;11.776;2023-06-14T08:58:54;4.68;;;2.85;;
21825;SDS011;11075;47.944;11.776;2023-06-14T09:01:23;5.05;;;2.55;;
21825;SDS011;11075;47.944;11.776;2023-06-14T09:03:50;7.18;;;3.00;;
21825;SDS011;11075;47.944;11.776;2023-06-14T09:06:17;4.90;;;2.85;;
21825;SDS011;11075;47.944;11.776;2023-06-14T09:08:46;3.65;;;2.47;;
21825;SDS011;11075;47.944;11.776;2023-06-14T09:11:17;2.88;;;2.53;;
21825;SDS011;11075;47.944;11.776;2023-06-14T09:13:48;3.75;;;2.63;;
21825;SDS011;11075;47.944;11.776;2023-06-14T09:16:16;3.35;;;2.42;;
21825;SDS011;11075;47.944;11.776;2023-06-14T09:18:44;3.90;;;3.22;;
21825;SDS011;11075;47.944;11.776;2023-06-14T09:21:15;3.33;;;2.58;;
21825;SDS011;11075;47.944;11.776;2023-06-14T09:23:44;5.28;;;2.92;;
21825;SDS011;11075;47.944;11.776;2023-06-14T09:26:15;4.15;;;2.70;;
21825;SDS011;11075;47.944;11.776;2023-06-14T09:28:44;3.83;;;2.60;;
21825;SDS011;11075;47.944;11.776;2023-06-14T09:31:13;6.07;;;2.97;;
21825;SDS011;11075;47.944;11.776;2023-06-14T09:33:42;5.35;;;2.70;;
21825;SDS011;11075;47.944;11.776;2023-06-14T09:36:18;2.40;;;2.20;;
21825;SDS011;11075;47.944;11.776;2023-06-14T09:38:58;6.80;;;3.42;;
21825;SDS011;11075;47.944;11.776;2023-06-14T09:41:30;6.10;;;3.00;;
21825;SDS011;11075;47.944;11.776;2023-06-14T09:44:02;5.47;;;2.65;;
21825;SDS011;11075;47.944;11.776;2023-06-14T09:46:36;10.48;;;2.80;;
21825;SDS011;11075;47.944;11.776;2023-06-14T09:49:03;4.72;;;3.00;;
21825;SDS011;11075;47.944;11.776;2023-06-14T09:51:32;4.57;;;2.58;;
21825;SDS011;11075;47.944;11.776;2023-06-14T09:54:02;3.08;;;2.78;;
21825;SDS011;11075;47.944;11.776;2023-06-14T09:56:37;3.35;;;2.80;;
21825;SDS011;11075;47.944;11.776;2023-06-14T09:59:06;7.82;;;2.78;;
21825;SDS011;11075;47.944;11.776;2023-06-14T10:01:35;8.02;;;3.08;;
21825;SDS011;11075;47.944;11.776;2023-06-14T10:04:09;4.70;;;2.72;;
21825;SDS011;11075;47.944;11.776;2023-06-14T10:06:40;3.15;;;2.70;;
21825;SDS011;11075;47.944;11.776;2023-06-14T10:09:10;6.00;;;2.85;;
21825;SDS011;11075;47.944;11.776;2023-06-14T10:11:37;3.45;;;2.78;;
21825;SDS011;11075;47.944;11.776;2023-06-14T10:14:11;5.70;;;2.70;;
21825;SDS011;11075;47.944;11.776;2023-06-14T10:16:49;4.60;;;2.58;;
21825;SDS011;11075;47.944;11.776;2023-06-14T10:22:32;4.55;;;3.13;;
21825;SDS011;11075;47.944;11.776;2023-06-14T10:25:03;3.38;;;2.60;;
21825;SDS011;11075;47.944;11.776;2023-06-14T10:27:38;5.25;;;2.75;;
21825;SDS011;11075;47.944;11.776;2023-06-14T10:30:07;5.82;;;2.75;;
21825;SDS011;11075;47.944;11.776;2023-06-14T10:32:34;6.40;;;2.85;;
21825;SDS011;11075;47.944;11.776;2023-06-14T10:35:04;3.65;;;2.58;;
21825;SDS011;11075;47.944;11.776;2023-06-14T10:37:33;3.95;;;3.30;;
21825;SDS011;11075;47.944;11.776;2023-06-14T10:40:00;5.40;;;3.35;;
21825;SDS011;11075;47.944;11.776;2023-06-14T10:42:33;7.35;;;2.72;;
21825;SDS011;11075;47.944;11.776;2023-06-14T10:45:00;5.40;;;2.75;;
21825;SDS011;11075;47.944;11.776;2023-06-14T10:52:36;5.30;;;2.80;;
21825;SDS011;11075;47.944;11.776;2023-06-14T10:55:11;4.95;;;2.95;;
21825;SDS011;11075;47.944;11.776;2023-06-14T10:57:43;3.70;;;2.90;;
21825;SDS011;11075;47.944;11.776;2023-06-14T11:00:23;3.88;;;2.72;;
21825;SDS011;11075;47.944;11.776;2023-06-14T11:05:29;3.85;;;2.40;;
21825;SDS011;11075;47.944;11.776;2023-06-14T11:10:43;7.22;;;3.08;;
21825;SDS011;11075;47.944;11.776;2023-06-14T11:13:12;3.78;;;2.78;;
21825;SDS011;11075;47.944;11.776;2023-06-14T11:15:39;3.03;;;2.80;;
21825;SDS011;11075;47.944;11.776;2023-06-14T11:18:11;6.70;;;3.13;;
21825;SDS011;11075;47.944;11.776;2023-06-14T11:20:39;3.38;;;2.65;;
21825;SDS011;11075;47.944;11.776;2023-06-14T11:23:07;7.18;;;3.08;;
21825;SDS011;11075;47.944;11.776;2023-06-14T11:25:33;4.18;;;2.83;;
21825;SDS011;11075;47.944;11.776;2023-06-14T11:28:00;4.35;;;3.13;;
21825;SDS011;11075;47.944;11.776;2023-06-14T11:30:27;5.85;;;2.65;;
21825;SDS011;11075;47.944;11.776;2023-06-14T11:32:54;7.97;;;2.60;;
21825;SDS011;11075;47.944;11.776;2023-06-14T11:35:24;6.10;;;2.90;;
21825;SDS011;11075;47.944;11.776;2023-06-14T11:37:53;3.88;;;3.13;;
21825;SDS011;11075;47.944;11.776;2023-06-14T11:40:25;4.50;;;2.90;;
21825;SDS011;11075;47.944;11.776;2023-06-14T11:42:59;4.50;;;2.97;;
21825;SDS011;11075;47.944;11.776;2023-06-14T11:45:27;4.35;;;2.72;;
21825;SDS011;11075;47.944;11.776;2023-06-14T11:47:54;5.80;;;2.70;;
21825;SDS011;11075;47.944;11.776;2023-06-14T11:50:25;4.88;;;2.70;;
21825;SDS011;11075;47.944;11.776;2023-06-14T11:52:55;7.25;;;2.80;;
21825;SDS011;11075;47.944;11.776;2023-06-14T11:55:23;5.32;;;2.80;;
21825;SDS011;11075;47.944;11.776;2023-06-14T11:57:53;4.70;;;2.78;;
21825;SDS011;11075;47.944;11.776;2023-06-14T12:00:24;5.13;;;2.83;;
21825;SDS011;11075;47.944;11.776;2023-06-14T12:02:52;3.67;;;2.60;;
21825;SDS011;11075;47.944;11.776;2023-06-14T12:05:24;4.07;;;2.80;;
21825;SDS011;11075;47.944;11.776;2023-06-14T12:07:59;5.93;;;2.78;;
21825;SDS011;11075;47.944;11.776;2023-06-14T12:10:27;2.90;;;2.60;;
21825;SDS011;11075;47.944;11.776;2023-06-14T12:12:58;3.30;;;3.00;;
21825;SDS011;11075;47.944;11.776;2023-06-14T12:15:29;4.25;;;2.83;;
21825;SDS011;11075;47.944;11.776;2023-06-14T12:17:57;4.47;;;2.42;;
21825;SDS011;11075;47.944;11.776;2023-06-14T12:20:28;5.07;;;2.60;;
21825;SDS011;11075;47.944;11.776;2023-06-14T12:22:57;7.22;;;2.72;;
21825;SDS011;11075;47.944;11.776;2023-06-14T12:25:29;4.70;;;2.75;;
21825;SDS011;11075;47.944;11.776;2023-06-14T12:27:58;5.80;;;2.75;;
21825;SDS011;11075;47.944;11.776;2023-06-14T12:30:26;4.18;;;2.80;;
21825;SDS011;11075;47.944;11.776;2023-06-14T12:32:53;4.82;;;2.70;;
21825;SDS011;11075;47.944;11.776;2023-06-14T12:35:20;5.20;;;2.88;;
21825;SDS011;11075;47.944;11.776;2023-06-14T12:37:47;6.28;;;2.83;;
21825;SDS011;11075;47.944;11.776;2023-06-14T12:40:14;3.53;;;2.42;;
21825;SDS011;11075;47.944;11.776;2023-06-14T12:42:41;6.43;;;2.95;;
21825;SDS011;11075;47.944;11.776;2023-06-14T12:45:08;3.40;;;2.53;;
21825;SDS011;11075;47.944;11.776;2023-06-14T12:47:36;5.30;;;2.90;;
21825;SDS011;11075;47.944;11.776;2023-06-14T12:50:03;4.68;;;2.80;;
21825;SDS011;11075;47.944;11.776;2023-06-14T12:52:31;3.75;;;2.53;;
21825;SDS011;11075;47.944;11.776;2023-06-14T12:54:58;5.47;;;2.80;;
21825;SDS011;11075;47.944;11.776;2023-06-14T12:57:25;4.53;;;2.90;;
21825;SDS011;11075;47.944;11.776;2023-06-14T12:59:51;6.38;;;3.00;;
21825;SDS011;11075;47.944;11.776;2023-06-14T13:02:19;2.67;;;2.45;;
21825;SDS011;11075;47.944;11.776;2023-06-14T13:04:51;5.45;;;2.83;;
21825;SDS011;11075;47.944;11.776;2023-06-14T13:07:18;3.78;;;2.67;;
21825;SDS011;11075;47.944;11.776;2023-06-14T13:09:45;3.78;;;2.35;;
21825;SDS011;11075;47.944;11.776;2023-06-14T13:12:12;8.77;;;3.17;;
21825;SDS011;11075;47.944;11.776;2023-06-14T13:14:40;2.97;;;2.38;;
21825;SDS011;11075;47.944;11.776;2023-06-14T13:17:08;7.43;;;3.15;;
21825;SDS011;11075;47.944;11.776;2023-06-14T13:19:36;2.75;;;2.45;;
21825;SDS011;11075;47.944;11.776;2023-06-14T13:22:03;7.10;;;2.53;;
21825;SDS011;11075;47.944;11.776;2023-06-14T13:24:30;2.95;;;2.30;;
21825;SDS011;11075;47.944;11.776;2023-06-14T13:26:57;2.78;;;2.45;;
21825;SDS011;11075;47.944;11.776;2023-06-14T13:29:24;8.88;;;2.65;;
21825;SDS011;11075;47.944;11.776;2023-06-14T13:31:51;2.92;;;2.65;;
21825;SDS011;11075;47.944;11.776;2023-06-14T13:34:19;4.07;;;2.60;;
21825;SDS011;11075;47.944;11.776;2023-06-14T13:36:46;3.50;;;2.47;;
21825;SDS011;11075;47.944;11.776;2023-06-14T13:39:13;3.55;;;2.30;;
21825;SDS011;11075;47.944;11.776;2023-06-14T13:41:40;4.85;;;2.67;;
21825;SDS011;11075;47.944;11.776;2023-06-14T13:44:07;10.27;;;3.00;;
21825;SDS011;11075;47.944;11.776;2023-06-14T13:46:34;8.35;;;2.75;;
21825;SDS011;11075;47.944;11.776;2023-06-14T13:49:01;5.03;;;3.22;;
21825;SDS011;11075;47.944;11.776;2023-06-14T13:51:28;9.52;;;2.50;;
21825;SDS011;11075;47.944;11.776;2023-06-14T13:53:55;5.22;;;2.55;;
21825;SDS011;11075;47.944;11.776;2023-06-14T13:56:22;3.33;;;2.45;;
21825;SDS011;11075;47.944;11.776;2023-06-14T13:58:50;6.35;;;2.67;;
21825;SDS011;11075;47.944;11.776;2023-06-14T14:01:18;17.50;;;3.42;;
21825;SDS011;11075;47.944;11.776;2023-06-14T14:03:46;4.05;;;2.60;;
21825;SDS011;11075;47.944;11.776;2023-06-14T14:06:14;8.63;;;2.80;;
21825;SDS011;11075;47.944;11.776;2023-06-14T14:08:42;3.25;;;2.30;;
21825;SDS011;11075;47.944;11.776;2023-06-14T14:11:10;8.32;;;3.38;;
21825;SDS011;11075;47.944;11.776;2023-06-14T14:13:36;5.15;;;2.42;;
21825;SDS011;11075;47.944;11.776;2023-06-14T14:16:04;4.43;;;2.60;;
21825;SDS011;11075;47.944;11.776;2023-06-14T14:18:32;3.50;;;2.60;;
21825;SDS011;11075;47.944;11.776;2023-06-14T14:20:59;5.22;;;2.63;;
21825;SDS011;11075;47.944;11.776;2023-06-14T14:23:27;3.20;;;2.50;;
21825;SDS011;11075;47.944;11.776;2023-06-14T14:25:54;4.97;;;2.47;;
21825;SDS011;11075;47.944;11.776;2023-06-14T14:28:21;3.13;;;2.80;;
21825;SDS011;11075;47.944;11.776;2023-06-14T14:30:48;8.13;;;2.88;;
21825;SDS011;11075;47.944;11.776;2023-06-14T14:33:14;7.78;;;2.85;;
21825;SDS011;11075;47.944;11.776;2023-06-14T14:35:44;6.35;;;2.97;;
21825;SDS011;11075;47.944;11.776;2023-06-14T14:38:15;4.55;;;2.72;;
21825;SDS011;11075;47.944;11.776;2023-06-14T14:40:42;5.28;;;2.72;;
21825;SDS011;11075;47.944;11.776;2023-06-14T14:43:10;5.22;;;2.78;;
21825;SDS011;11075;47.944;11.776;2023-06-14T14:45:37;3.17;;;2.85;;
21825;SDS011;11075;47.944;11.776;2023-06-14T14:48:04;6.72;;;2.75;;
21825;SDS011;11075;47.944;11.776;2023-06-14T14:50:32;4.65;;;3.42;;
21825;SDS011;11075;47.944;11.776;2023-06-14T14:52:59;6.53;;;2.40;;
21825;SDS011;11075;47.944;11.776;2023-06-14T14:55:26;3.70;;;2.65;;